Joel, Wisconsin
Current Conditions -  °F | °C
As of 12:15 AM on Saturday 29 Nov 2014 (Local Time) from KOEO Reporting Station
Clear Clear  
Wind Chill: -11°   Ceiling: Unl
Heat Index: -7°   Visibility: 10mi
Dew Point: -8°   Wind: 6mph
Humidity: 89%   Direction: 110°ESE
Pressure: 29.72"   Gusts: NA
Location:  45.3559°N, 92.3527°W
Report Text: KOEO 290615Z AUTO 11005KT 10SM CLR M06/M08 A2972 RMK AO2 T10651081
Loading
Personal Weather Stations






























Interactive Weather Map New forecast layout! Learn more

10-Day Weather Forecast

Advertisements
Track Severe Weather on mobile